U S A F Academy, Colorado
Current Conditions -  °F | °C
As of 10:56 PM on Monday 20 Oct 2014 (Local Time) from KSHM Reporting Station
Clear Clear  
Wind Chill: 51°   Ceiling: Unl
Heat Index: 51°   Visibility: 10mi
Dew Point: 40°   Wind: 3mph
Humidity: 66%   Direction: 130°SE
Pressure: 30.21"   Gusts: NA
Location:  38.8247°N, 104.562°W
Report Text: KSHM 210456Z AUTO 13003KT 10SM CLR 10/04 A3021 RMK AO2 SLP189 T01030043
Loading
Personal Weather Stations






























Interactive Weather Map
Tropical Storm Tracking
New forecast layout! Learn more

10-Day Weather Forecast

Advertisements
Track Severe Weather on mobile